Tull, Arkansas
Current Conditions -  °F | °C
As of 12:53 AM on Friday 28 Nov 2014 (Local Time) from KLIT Reporting Station
Clear Clear  
Wind Chill: 30°   Ceiling: Unl
Heat Index: 36°   Visibility: 10mi
Dew Point: 29°   Wind: 8mph
Humidity: 76%   Direction: 160°SSE
Pressure: 30.41"   Gusts: NA
Location:  34.5666°N, 92.583°W
Report Text: KLIT 280653Z 16007KT 10SM CLR 02/M02 A3041 RMK AO2 SLP301 T00221017
Loading
Personal Weather Stations






























Interactive Weather Map New forecast layout! Learn more

10-Day Weather Forecast

Advertisements
Track Severe Weather on mobile